Time;durP1;ratioP1;P1;durP2;ratioP2;P2;SDS_P1;SDS_P2;PMS_P1;PMS_P2;Temp;Humidity;BMP_temperature;BMP_pressure;BME280_temperature;BME280_humidity;BME280_pressure;Samples;Min_cycle;Max_cycle;Signal;HPM_P1;HPM_P2
2023/10/24 00:00:27;;;;;;;6.25;3.60;;;12.90;99.90;;;;;;4266999;27;20540;-55
2023/10/24 00:02:29;;;;;;;8.48;3.88;;;12.80;99.90;;;;;;4259990;27;20043;-56
2023/10/24 00:04:31;;;;;;;6.03;3.67;;;12.90;99.90;;;;;;4258471;27;20050;-56
2023/10/24 00:06:34;;;;;;;6.13;3.58;;;12.90;99.90;;;;;;4249763;27;20399;-55
2023/10/24 00:08:37;;;;;;;9.25;4.18;;;12.90;99.90;;;;;;4243463;27;20085;-55
2023/10/24 00:10:39;;;;;;;7.93;4.45;;;12.90;99.90;;;;;;4250175;27;20077;-54
2023/10/24 00:12:41;;;;;;;7.15;4.10;;;12.90;99.90;;;;;;4252432;27;20039;-55
2023/10/24 00:14:43;;;;;;;6.85;4.20;;;13.00;99.90;;;;;;4259693;27;20294;-56
2023/10/24 00:16:45;;;;;;;8.05;3.55;;;12.90;99.90;;;;;;4249751;27;20039;-55
2023/10/24 00:18:47;;;;;;;5.15;3.78;;;13.00;99.90;;;;;;4261444;27;20070;-56
2023/10/24 00:20:50;;;;;;;6.55;4.15;;;13.00;99.90;;;;;;4251796;27;20439;-56
2023/10/24 00:22:53;;;;;;;6.45;3.20;;;13.00;99.90;;;;;;4251977;27;20047;-55
2023/10/24 00:24:55;;;;;;;6.72;4.18;;;13.00;99.90;;;;;;4266243;27;20041;-55
2023/10/24 00:26:57;;;;;;;6.43;3.00;;;13.00;99.90;;;;;;4266154;27;20073;-55
2023/10/24 00:29:00;;;;;;;5.80;3.67;;;13.00;99.90;;;;;;4262024;27;20046;-56
2023/10/24 00:31:03;;;;;;;5.95;3.95;;;13.00;99.90;;;;;;4255730;27;20083;-55
2023/10/24 00:33:06;;;;;;;5.15;3.65;;;13.10;99.90;;;;;;4263765;27;20125;-56
2023/10/24 00:35:08;;;;;;;6.32;4.10;;;13.10;99.90;;;;;;4260565;27;20055;-55
2023/10/24 00:37:11;;;;;;;5.80;3.97;;;13.00;99.90;;;;;;4249335;27;20103;-56
2023/10/24 00:39:15;;;;;;;6.22;3.78;;;13.10;99.90;;;;;;4257314;27;20099;-56
2023/10/24 00:41:17;;;;;;;6.65;4.18;;;13.10;99.90;;;;;;4234661;27;20078;-55
2023/10/24 00:43:19;;;;;;;7.55;4.70;;;13.10;99.90;;;;;;4251466;27;20043;-55
2023/10/24 00:45:21;;;;;;;6.00;4.40;;;13.10;99.90;;;;;;4261460;27;20039;-55
2023/10/24 00:47:24;;;;;;;7.35;4.72;;;13.10;99.90;;;;;;4249108;27;20050;-55
2023/10/24 00:49:26;;;;;;;9.93;5.20;;;13.10;99.90;;;;;;4256188;27;20042;-55
2023/10/24 00:51:28;;;;;;;12.60;5.47;;;13.10;99.90;;;;;;4265723;27;20043;-55
2023/10/24 00:53:30;;;;;;;7.93;5.53;;;13.10;99.90;;;;;;4264892;27;20046;-55
2023/10/24 00:55:36;;;;;;;7.93;5.47;;;13.10;99.90;;;;;;4260261;27;20046;-55
2023/10/24 00:57:38;;;;;;;11.85;6.60;;;13.10;99.90;;;;;;4248894;27;20051;-55
2023/10/24 00:59:43;;;;;;;8.60;5.82;;;13.20;99.90;;;;;;4255110;27;20460;-55
2023/10/24 01:01:45;;;;;;;7.30;5.88;;;13.10;99.90;;;;;;4259246;27;20058;-55
2023/10/24 01:03:49;;;;;;;7.68;5.85;;;13.10;99.90;;;;;;4265352;27;20046;-56
2023/10/24 01:05:52;;;;;;;6.30;4.68;;;13.20;99.90;;;;;;4260063;27;20057;-55
2023/10/24 01:07:54;;;;;;;11.00;6.38;;;13.20;99.90;;;;;;4230215;27;20044;-55
2023/10/24 01:09:56;;;;;;;10.20;5.90;;;13.20;99.90;;;;;;4254033;27;20045;-55
2023/10/24 01:12:00;;;;;;;10.43;7.03;;;13.20;99.90;;;;;;4237446;27;20556;-54
2023/10/24 01:14:02;;;;;;;9.50;6.53;;;13.10;99.90;;;;;;4249023;27;20122;-55
2023/10/24 01:16:04;;;;;;;9.43;6.60;;;13.10;99.90;;;;;;4250565;27;20079;-54
2023/10/24 01:18:06;;;;;;;8.52;6.53;;;13.10;99.90;;;;;;4265406;27;20472;-55
2023/10/24 01:20:10;;;;;;;8.80;5.95;;;13.10;99.90;;;;;;4261051;27;20071;-56
2023/10/24 01:22:13;;;;;;;9.40;6.35;;;13.10;99.90;;;;;;4256377;27;20055;-56
2023/10/24 01:24:17;;;;;;;7.13;5.82;;;13.10;99.90;;;;;;4261484;27;20095;-55
2023/10/24 01:26:20;;;;;;;8.88;6.75;;;13.10;99.90;;;;;;4256708;27;20368;-56
2023/10/24 01:28:24;;;;;;;12.13;6.78;;;13.10;99.90;;;;;;4265632;27;20047;-56
2023/10/24 01:30:26;;;;;;;13.95;5.78;;;13.20;99.90;;;;;;4261573;27;20049;-56
2023/10/24 01:32:31;;;;;;;10.45;7.35;;;13.20;99.90;;;;;;4265750;27;20514;-56
2023/10/24 01:34:34;;;;;;;9.00;6.57;;;13.20;99.90;;;;;;4267466;27;20047;-61
2023/10/24 01:36:36;;;;;;;9.68;7.07;;;13.20;99.90;;;;;;4253468;27;20082;-55
2023/10/24 01:38:39;;;;;;;10.60;7.30;;;13.10;99.90;;;;;;4246985;27;20047;-58
2023/10/24 01:40:42;;;;;;;7.10;6.40;;;13.20;99.90;;;;;;4262612;27;20043;-55
2023/10/24 01:42:44;;;;;;;8.20;6.93;;;13.20;99.90;;;;;;4255764;27;20519;-55
2023/10/24 01:44:46;;;;;;;8.50;5.60;;;13.20;99.90;;;;;;4265251;27;20133;-56
2023/10/24 01:46:49;;;;;;;8.65;6.70;;;13.20;99.90;;;;;;4253593;27;20051;-60
2023/10/24 01:48:51;;;;;;;8.23;6.38;;;13.20;99.90;;;;;;4263800;27;20058;-56
2023/10/24 01:50:53;;;;;;;6.47;5.68;;;13.20;99.90;;;;;;4263022;27;20122;-55
2023/10/24 01:52:58;;;;;;;10.98;7.00;;;13.20;99.90;;;;;;4253901;27;20280;-55
2023/10/24 01:55:01;;;;;;;;;;;13.20;99.90;;;;;;4265564;27;20050;-56
2023/10/24 01:57:04;;;;;;;8.55;7.03;;;13.20;99.90;;;;;;4254259;27;19964;-55
2023/10/24 01:59:07;;;;;;;13.57;7.85;;;13.20;99.90;;;;;;4262959;27;20536;-56
2023/10/24 02:01:09;;;;;;;10.90;7.15;;;13.10;99.90;;;;;;4263494;27;20054;-56
2023/10/24 02:03:11;;;;;;;8.35;6.82;;;13.20;99.90;;;;;;4258703;27;20043;-55
2023/10/24 02:05:14;;;;;;;14.07;8.48;;;13.20;99.90;;;;;;4247291;27;20126;-56
2023/10/24 02:07:16;;;;;;;10.05;7.50;;;13.20;99.90;;;;;;4256674;27;20124;-57
2023/10/24 02:09:18;;;;;;;8.82;7.80;;;13.20;99.90;;;;;;4251017;27;20039;-56
2023/10/24 02:11:22;;;;;;;9.88;6.85;;;13.20;99.90;;;;;;4248765;27;20079;-55
2023/10/24 02:13:24;;;;;;;9.70;6.88;;;13.20;99.90;;;;;;4258884;27;20396;-58
2023/10/24 02:15:26;;;;;;;8.13;6.28;;;13.20;99.90;;;;;;4247446;27;20050;-55
2023/10/24 02:17:30;;;;;;;10.75;6.93;;;13.20;99.90;;;;;;4255844;27;20054;-55
2023/10/24 02:19:32;;;;;;;9.77;7.22;;;13.30;99.90;;;;;;4264671;27;20050;-55
2023/10/24 02:21:34;;;;;;;8.85;6.75;;;13.30;99.90;;;;;;4261788;27;20039;-55
2023/10/24 02:23:40;;;;;;;9.80;6.80;;;13.30;99.90;;;;;;4259190;27;20085;-55
2023/10/24 02:25:42;;;;;;;9.35;7.65;;;13.30;99.90;;;;;;4264745;27;20049;-55
2023/10/24 02:27:45;;;;;;;9.50;7.00;;;13.30;99.90;;;;;;4241931;27;20039;-56
2023/10/24 02:29:47;;;;;;;9.18;6.95;;;13.30;99.90;;;;;;4264824;27;20051;-55
2023/10/24 02:31:49;;;;;;;9.55;6.70;;;13.30;99.90;;;;;;4263280;27;20123;-58
2023/10/24 02:33:52;;;;;;;9.75;7.22;;;13.30;99.90;;;;;;4259209;27;20395;-55
2023/10/24 02:35:54;;;;;;;8.27;6.10;;;13.30;99.90;;;;;;4247321;27;20043;-55
2023/10/24 02:37:56;;;;;;;8.48;7.15;;;13.30;99.90;;;;;;4253741;27;20039;-56
2023/10/24 02:39:58;;;;;;;8.65;7.18;;;13.30;99.90;;;;;;4254289;27;20116;-56
2023/10/24 02:42:00;;;;;;;11.10;8.27;;;13.30;99.90;;;;;;4248074;27;20454;-56
2023/10/24 02:44:03;;;;;;;16.25;7.78;;;13.30;99.90;;;;;;4259334;27;20043;-56
2023/10/24 02:46:06;;;;;;;11.63;7.80;;;13.30;99.90;;;;;;4247278;27;20051;-56
2023/10/24 02:48:08;;;;;;;9.32;8.00;;;13.40;99.90;;;;;;4252347;27;20046;-56
2023/10/24 02:50:10;;;;;;;14.32;7.68;;;13.40;99.90;;;;;;4258206;27;20050;-55
2023/10/24 02:52:12;;;;;;;9.90;7.90;;;13.30;99.90;;;;;;4264367;27;20061;-56
2023/10/24 02:54:15;;;;;;;8.63;6.45;;;13.40;99.90;;;;;;4260207;27;20043;-55
2023/10/24 02:56:17;;;;;;;11.95;7.90;;;13.40;99.90;;;;;;4247144;28;20058;-56
2023/10/24 02:58:19;;;;;;;13.75;9.00;;;13.40;99.90;;;;;;4250940;27;20070;-55
2023/10/24 03:00:23;;;;;;;9.45;6.28;;;13.40;99.90;;;;;;4256331;27;20078;-56
2023/10/24 03:02:25;;;;;;;8.98;7.05;;;13.40;99.90;;;;;;4257613;27;20077;-55
2023/10/24 03:04:27;;;;;;;10.32;6.97;;;13.40;99.90;;;;;;4259284;27;20078;-56
2023/10/24 03:06:29;;;;;;;7.05;6.35;;;13.40;99.90;;;;;;4248072;27;20096;-56
2023/10/24 03:08:31;;;;;;;8.25;6.95;;;13.40;99.90;;;;;;4249410;27;20043;-56
2023/10/24 03:10:38;;;;;;;7.88;5.95;;;13.40;99.90;;;;;;4257489;27;20130;-55
2023/10/24 03:12:40;;;;;;;8.63;7.03;;;13.50;99.90;;;;;;4247098;28;20039;-56
2023/10/24 03:14:42;;;;;;;10.68;7.40;;;13.40;99.90;;;;;;4258034;27;20269;-56
2023/10/24 03:16:47;;;;;;;8.68;6.95;;;13.40;99.90;;;;;;4251695;27;20047;-55
2023/10/24 03:18:49;;;;;;;8.32;6.25;;;13.40;99.90;;;;;;4262014;27;20043;-55
2023/10/24 03:20:51;;;;;;;9.82;6.53;;;13.40;99.90;;;;;;4260918;27;20082;-55
2023/10/24 03:22:54;;;;;;;8.82;7.13;;;13.50;99.90;;;;;;4251790;27;20046;-55
2023/10/24 03:24:56;;;;;;;10.90;6.78;;;13.50;99.90;;;;;;4246054;27;20073;-55
2023/10/24 03:26:58;;;;;;;7.65;6.82;;;13.50;99.90;;;;;;4264587;27;20063;-55
2023/10/24 03:29:00;;;;;;;8.15;7.32;;;13.50;99.90;;;;;;4263582;27;20111;-56
2023/10/24 03:31:03;;;;;;;7.45;6.10;;;13.40;99.90;;;;;;4265550;27;20039;-56
2023/10/24 03:33:06;;;;;;;8.48;6.50;;;13.40;99.90;;;;;;4267081;27;20107;-56
2023/10/24 03:35:09;;;;;;;7.10;5.93;;;13.40;99.90;;;;;;4263070;27;20492;-55
2023/10/24 03:37:11;;;;;;;7.93;6.50;;;13.50;99.90;;;;;;4253541;27;20042;-55
2023/10/24 03:39:13;;;;;;;9.43;6.30;;;13.40;99.90;;;;;;4251605;27;20043;-54
2023/10/24 03:41:15;;;;;;;7.45;5.95;;;13.40;99.90;;;;;;4261337;27;20059;-55
2023/10/24 03:43:17;;;;;;;7.97;5.65;;;13.40;99.90;;;;;;4250124;27;20088;-55
2023/10/24 03:45:19;;;;;;;7.40;5.22;;;13.50;99.90;;;;;;4257339;27;20083;-55
2023/10/24 03:47:21;;;;;;;6.65;5.93;;;13.40;99.90;;;;;;4254839;27;20062;-56
2023/10/24 03:49:25;;;;;;;7.97;6.57;;;13.40;99.90;;;;;;4251314;27;20081;-55
2023/10/24 03:51:27;;;;;;;6.45;5.80;;;13.40;99.90;;;;;;4264333;27;20070;-56
2023/10/24 03:53:29;;;;;;;7.05;5.32;;;13.40;99.90;;;;;;4267371;27;20047;-56
2023/10/24 03:55:32;;;;;;;6.30;5.70;;;13.40;99.90;;;;;;4260500;27;20039;-55
2023/10/24 03:57:34;;;;;;;5.88;5.07;;;13.40;99.90;;;;;;4260686;27;20443;-55
2023/10/24 03:59:36;;;;;;;8.07;5.57;;;13.40;99.90;;;;;;4247931;27;20428;-55
2023/10/24 04:01:40;;;;;;;7.80;5.13;;;13.40;99.90;;;;;;4257352;27;20066;-55
2023/10/24 04:03:43;;;;;;;6.05;4.40;;;13.40;99.90;;;;;;4267152;27;20087;-55
2023/10/24 04:05:49;;;;;;;;;;;13.40;99.90;;;;;;4262044;27;20492;-55
2023/10/24 04:07:51;;;;;;;6.05;4.32;;;13.40;99.90;;;;;;4260556;27;20279;-57
2023/10/24 04:09:53;;;;;;;4.82;4.32;;;13.30;99.90;;;;;;4267108;27;20057;-55
2023/10/24 04:11:56;;;;;;;5.32;4.32;;;13.30;99.90;;;;;;4239725;27;20427;-56
2023/10/24 04:13:58;;;;;;;4.95;4.00;;;13.40;99.90;;;;;;4270080;27;20131;-56
2023/10/24 04:16:00;;;;;;;6.47;5.03;;;13.40;99.90;;;;;;4262666;27;20054;-56
2023/10/24 04:18:03;;;;;;;8.23;4.15;;;13.40;99.90;;;;;;4259183;27;20061;-56
2023/10/24 04:20:07;;;;;;;6.60;4.65;;;13.40;99.90;;;;;;4267005;27;20045;-56
2023/10/24 04:22:11;;;;;;;5.13;3.67;;;13.40;99.90;;;;;;4253839;27;20039;-55
2023/10/24 04:24:14;;;;;;;5.22;3.88;;;13.40;99.90;;;;;;4262423;27;20403;-56
2023/10/24 04:26:16;;;;;;;5.72;4.10;;;13.40;99.90;;;;;;4262653;27;20130;-55
2023/10/24 04:28:18;;;;;;;5.05;4.45;;;13.40;99.90;;;;;;4257517;27;20038;-55
2023/10/24 04:30:20;;;;;;;5.05;3.80;;;13.30;99.90;;;;;;4266785;27;20070;-56
2023/10/24 04:32:22;;;;;;;6.68;3.50;;;13.30;99.90;;;;;;4255169;27;20197;-55
2023/10/24 04:34:25;;;;;;;6.80;4.00;;;13.30;99.90;;;;;;4265709;27;20049;-56
2023/10/24 04:36:27;;;;;;;4.75;3.78;;;13.30;99.90;;;;;;4263668;27;20045;-60
2023/10/24 04:38:31;;;;;;;5.82;3.42;;;13.30;99.90;;;;;;4256408;27;20401;-55
2023/10/24 04:40:37;;;;;;;5.43;3.60;;;13.30;99.90;;;;;;4267448;27;20112;-55
2023/10/24 04:42:39;;;;;;;4.25;3.47;;;13.30;99.90;;;;;;4255067;27;20108;-55
2023/10/24 04:44:41;;;;;;;4.30;3.47;;;13.30;99.90;;;;;;4265457;27;20130;-56
2023/10/24 04:46:44;;;;;;;4.63;3.78;;;13.30;99.90;;;;;;4265534;27;20065;-55
2023/10/24 04:48:46;;;;;;;5.68;4.03;;;13.30;99.90;;;;;;4258047;27;20469;-55
2023/10/24 04:50:48;;;;;;;4.90;3.15;;;13.30;99.90;;;;;;4267506;27;20054;-56
2023/10/24 04:52:50;;;;;;;3.58;3.28;;;13.30;99.90;;;;;;4258073;27;20046;-60
2023/10/24 04:54:54;;;;;;;4.10;3.20;;;13.30;99.90;;;;;;4264252;27;20046;-56
2023/10/24 04:56:58;;;;;;;5.07;3.13;;;13.30;99.90;;;;;;4264391;27;20041;-56
2023/10/24 04:59:00;;;;;;;3.47;3.17;;;13.30;99.90;;;;;;4254389;27;20528;-55
2023/10/24 05:01:03;;;;;;;3.65;3.28;;;13.30;99.90;;;;;;4265844;27;20047;-56
2023/10/24 05:03:05;;;;;;;4.40;2.60;;;13.30;99.90;;;;;;4254982;27;20428;-55
2023/10/24 05:05:07;;;;;;;3.95;2.53;;;13.30;99.90;;;;;;4262333;27;20055;-55
2023/10/24 05:07:09;;;;;;;5.32;3.53;;;13.30;99.90;;;;;;4246205;27;20043;-55
2023/10/24 05:09:14;;;;;;;3.67;3.05;;;13.30;99.90;;;;;;4254207;27;20042;-56
2023/10/24 05:11:17;;;;;;;3.33;3.03;;;13.30;99.90;;;;;;4265872;27;20049;-54
2023/10/24 05:13:19;;;;;;;4.20;2.90;;;13.30;99.90;;;;;;4257548;27;20039;-56
2023/10/24 05:15:22;;;;;;;2.97;2.58;;;13.30;99.90;;;;;;4260648;27;20051;-55
2023/10/24 05:17:24;;;;;;;4.38;2.55;;;13.30;99.90;;;;;;4263739;27;20081;-55
2023/10/24 05:19:26;;;;;;;4.50;2.88;;;13.30;99.90;;;;;;4260291;27;20394;-55
2023/10/24 05:21:28;;;;;;;4.00;2.45;;;13.30;99.90;;;;;;4248936;27;20051;-55
2023/10/24 05:23:30;;;;;;;2.65;2.45;;;13.30;99.90;;;;;;4256668;27;20042;-55
2023/10/24 05:25:32;;;;;;;3.47;2.47;;;13.30;99.90;;;;;;4260827;27;20039;-56
2023/10/24 05:27:36;;;;;;;3.17;2.33;;;13.30;99.90;;;;;;4264923;27;20046;-55
2023/10/24 05:29:38;;;;;;;3.03;2.38;;;13.30;99.90;;;;;;4259631;27;20089;-55
2023/10/24 05:31:40;;;;;;;3.40;2.45;;;13.40;99.90;;;;;;4257555;27;20129;-56
2023/10/24 05:33:44;;;;;;;5.00;2.60;;;13.40;99.90;;;;;;4261189;27;20042;-54
2023/10/24 05:35:47;;;;;;;2.53;2.17;;;13.40;99.90;;;;;;4255237;27;20555;-55
2023/10/24 05:37:49;;;;;;;4.15;2.60;;;13.30;99.90;;;;;;4248259;27;20039;-55
2023/10/24 05:39:51;;;;;;;3.40;2.45;;;13.30;99.90;;;;;;4262164;27;20502;-60
2023/10/24 05:41:53;;;;;;;4.00;2.50;;;13.30;99.90;;;;;;4250109;27;20047;-55
2023/10/24 05:43:57;;;;;;;3.33;2.72;;;13.30;99.90;;;;;;4253247;27;20216;-55
2023/10/24 05:45:59;;;;;;;5.40;2.72;;;13.30;99.90;;;;;;4256875;27;20039;-55
2023/10/24 05:48:03;;;;;;;2.78;2.40;;;13.40;99.90;;;;;;4248545;27;20124;-53
2023/10/24 05:50:06;;;;;;;4.00;2.60;;;13.30;99.90;;;;;;4236905;27;20106;-55
2023/10/24 05:52:08;;;;;;;2.55;2.10;;;13.30;99.90;;;;;;4265620;27;20435;-56
2023/10/24 05:54:10;;;;;;;2.28;1.88;;;13.30;99.90;;;;;;4257928;27;20047;-55
2023/10/24 05:56:12;;;;;;;7.38;3.00;;;13.30;99.90;;;;;;4256438;27;20047;-55
2023/10/24 05:58:14;;;;;;;3.55;2.67;;;13.40;99.90;;;;;;4268522;27;20400;-59
2023/10/24 06:00:18;;;;;;;3.58;2.50;;;13.40;99.90;;;;;;4263308;27;20051;-58
2023/10/24 06:02:20;;;;;;;5.85;2.60;;;13.30;99.90;;;;;;4261328;27;20043;-58
2023/10/24 06:04:23;;;;;;;4.72;2.83;;;13.30;99.90;;;;;;4261033;27;20118;-56
2023/10/24 06:06:25;;;;;;;5.15;2.70;;;13.30;99.90;;;;;;4257937;27;20104;-55
2023/10/24 06:08:27;;;;;;;4.05;2.72;;;13.30;99.90;;;;;;4247968;27;20156;-56
2023/10/24 06:10:29;;;;;;;2.80;2.60;;;13.40;99.90;;;;;;4257826;27;20074;-56
2023/10/24 06:12:31;;;;;;;5.47;3.30;;;13.30;99.90;;;;;;4249541;27;20049;-55
2023/10/24 06:14:34;;;;;;;3.88;2.88;;;13.40;99.90;;;;;;4251463;27;20212;-55
2023/10/24 06:16:37;;;;;;;5.30;3.30;;;13.30;99.90;;;;;;4253023;27;20204;-56
2023/10/24 06:18:39;;;;;;;7.40;2.90;;;13.30;99.90;;;;;;4264943;27;20047;-56
2023/10/24 06:20:41;;;;;;;4.00;2.70;;;13.40;99.90;;;;;;4261347;27;20042;-55
2023/10/24 06:22:44;;;;;;;4.10;2.78;;;13.40;99.90;;;;;;4251169;27;20045;-56
2023/10/24 06:24:46;;;;;;;4.18;2.80;;;13.40;99.90;;;;;;4263702;27;20456;-56
2023/10/24 06:26:48;;;;;;;6.80;3.20;;;13.40;99.90;;;;;;4264122;27;20039;-55
2023/10/24 06:28:50;;;;;;;3.40;2.88;;;13.40;99.90;;;;;;4246662;27;20500;-56
2023/10/24 06:30:57;;;;;;;6.47;2.50;;;13.40;99.90;;;;;;4260518;27;20440;-55
2023/10/24 06:33:01;;;;;;;4.70;2.63;;;13.40;99.90;;;;;;4265970;27;20440;-55
2023/10/24 06:35:04;;;;;;;5.75;2.88;;;13.40;99.90;;;;;;4266207;27;20408;-55
2023/10/24 06:37:06;;;;;;;3.55;2.90;;;13.30;99.90;;;;;;4256161;27;20050;-56
2023/10/24 06:39:08;;;;;;;10.43;3.30;;;13.30;99.90;;;;;;4267608;27;20042;-56
2023/10/24 06:41:11;;;;;;;5.18;2.88;;;13.30;99.90;;;;;;4257544;27;20047;-56
2023/10/24 06:43:13;;;;;;;4.80;3.40;;;13.30;99.90;;;;;;4259959;27;20077;-55
2023/10/24 06:45:16;;;;;;;3.90;3.13;;;13.40;99.90;;;;;;4263778;27;20119;-55
2023/10/24 06:47:18;;;;;;;8.15;2.50;;;13.30;99.90;;;;;;4253287;27;20058;-55
2023/10/24 06:49:22;;;;;;;5.70;3.08;;;13.30;99.90;;;;;;4264487;27;20042;-56
2023/10/24 06:51:24;;;;;;;4.38;2.63;;;13.30;99.90;;;;;;4257486;27;20116;-56
2023/10/24 06:53:26;;;;;;;3.42;2.80;;;13.30;99.90;;;;;;4258133;27;20450;-54
2023/10/24 06:55:28;;;;;;;5.50;3.03;;;13.20;99.90;;;;;;4263442;27;20047;-56
2023/10/24 06:57:30;;;;;;;4.40;3.00;;;13.20;99.90;;;;;;4252740;27;20047;-54
2023/10/24 06:59:33;;;;;;;5.28;3.17;;;13.20;99.90;;;;;;4266279;27;20050;-57
2023/10/24 07:01:35;;;;;;;6.63;2.78;;;13.20;99.90;;;;;;4264045;27;20043;-55
2023/10/24 07:03:37;;;;;;;4.85;2.88;;;13.20;99.90;;;;;;4264370;27;20054;-56
2023/10/24 07:05:41;;;;;;;4.13;2.60;;;13.20;99.90;;;;;;4264639;27;20043;-55
2023/10/24 07:07:43;;;;;;;5.10;3.35;;;13.20;99.90;;;;;;4260096;27;20449;-55
2023/10/24 07:09:45;;;;;;;4.07;2.60;;;13.20;99.90;;;;;;4247592;28;20412;-54
2023/10/24 07:11:47;;;;;;;10.75;3.45;;;13.20;99.90;;;;;;4250573;27;20040;-55
2023/10/24 07:13:50;;;;;;;6.32;3.05;;;13.20;99.90;;;;;;4255892;27;20071;-56
2023/10/24 07:15:52;;;;;;;10.35;2.78;;;13.20;99.90;;;;;;4247045;28;20404;-55
2023/10/24 07:17:54;;;;;;;7.85;2.80;;;13.20;99.90;;;;;;4258919;27;20482;-55
2023/10/24 07:19:57;;;;;;;8.93;2.88;;;13.20;99.90;;;;;;4264444;27;20045;-57
2023/10/24 07:22:01;;;;;;;6.88;2.95;;;13.20;99.90;;;;;;4258897;27;20043;-56
2023/10/24 07:24:04;;;;;;;5.47;2.70;;;13.20;99.90;;;;;;4260341;27;20092;-55
2023/10/24 07:26:06;;;;;;;7.03;2.63;;;13.10;99.90;;;;;;4263937;27;20511;-56
2023/10/24 07:28:08;;;;;;;3.03;2.28;;;13.10;99.90;;;;;;4259801;27;20090;-55
2023/10/24 07:30:11;;;;;;;4.38;2.47;;;13.10;99.90;;;;;;4248896;27;20057;-56
2023/10/24 07:32:14;;;;;;;4.47;2.40;;;13.00;99.90;;;;;;4257770;27;20116;-59
2023/10/24 07:34:16;;;;;;;6.70;2.55;;;13.00;99.90;;;;;;4254992;27;20126;-55
2023/10/24 07:36:18;;;;;;;4.88;2.17;;;13.00;99.90;;;;;;4265829;27;20043;-56
2023/10/24 07:38:22;;;;;;;6.45;2.45;;;13.00;99.90;;;;;;4259078;27;20073;-60
2023/10/24 07:40:24;;;;;;;3.05;2.13;;;13.00;99.90;;;;;;4267000;27;20057;-56
2023/10/24 07:42:27;;;;;;;6.75;2.58;;;13.00;99.90;;;;;;4266722;27;20051;-57
2023/10/24 07:44:29;;;;;;;5.60;2.75;;;13.10;99.90;;;;;;4265490;27;20054;-61
2023/10/24 07:46:31;;;;;;;6.78;2.13;;;13.10;99.90;;;;;;4234856;28;20079;-59
2023/10/24 07:48:34;;;;;;;9.00;1.85;;;13.10;99.90;;;;;;4260625;27;20375;-61
2023/10/24 07:50:36;;;;;;;3.67;1.73;;;13.10;99.90;;;;;;4261169;27;20039;-55
2023/10/24 07:52:38;;;;;;;3.30;2.03;;;13.10;99.90;;;;;;4263500;27;20088;-55
2023/10/24 07:54:42;;;;;;;6.57;2.25;;;13.20;99.90;;;;;;4259548;27;20039;-55
2023/10/24 07:56:44;;;;;;;8.23;2.47;;;13.20;99.90;;;;;;4248081;28;20049;-57
2023/10/24 07:58:46;;;;;;;6.30;2.10;;;13.20;99.90;;;;;;4260694;27;20399;-55
2023/10/24 08:00:49;;;;;;;6.60;1.95;;;13.20;99.90;;;;;;4252661;27;20042;-55
2023/10/24 08:02:51;;;;;;;8.40;2.22;;;13.30;99.90;;;;;;4261291;27;20050;-55
2023/10/24 08:04:53;;;;;;;5.35;1.88;;;13.30;99.90;;;;;;4261691;27;20042;-56
2023/10/24 08:06:56;;;;;;;7.25;2.25;;;13.30;99.90;;;;;;4250393;27;20103;-55
2023/10/24 08:08:58;;;;;;;12.98;1.90;;;13.30;99.90;;;;;;4253718;27;20046;-56
2023/10/24 08:11:02;;;;;;;5.68;1.80;;;13.30;99.90;;;;;;4261270;27;20042;-56
2023/10/24 08:13:05;;;;;;;4.72;1.70;;;13.30;99.90;;;;;;4265923;27;20083;-57
2023/10/24 08:15:09;;;;;;;7.53;2.10;;;13.40;99.90;;;;;;4237519;27;20143;-57
2023/10/24 08:17:11;;;;;;;5.03;1.77;;;13.40;99.90;;;;;;4267073;27;20047;-55
2023/10/24 08:19:13;;;;;;;6.28;2.00;;;13.30;99.90;;;;;;4261335;27;20058;-55
2023/10/24 08:21:16;;;;;;;6.93;2.00;;;13.40;99.90;;;;;;4260068;27;20069;-56
2023/10/24 08:23:18;;;;;;;10.88;2.28;;;13.40;99.90;;;;;;4261278;27;20050;-56
2023/10/24 08:25:20;;;;;;;8.25;1.80;;;13.40;99.90;;;;;;4262044;27;20057;-56
2023/10/24 08:27:24;;;;;;;7.75;2.00;;;13.40;99.90;;;;;;4266777;27;20102;-55
2023/10/24 08:29:26;;;;;;;14.05;2.30;;;13.50;99.90;;;;;;4262135;27;20364;-55
2023/10/24 08:31:29;;;;;;;7.63;2.20;;;13.50;99.90;;;;;;4265113;27;20070;-57
2023/10/24 08:33:33;;;;;;;6.22;2.03;;;13.60;99.90;;;;;;4248476;27;20043;-55
2023/10/24 08:35:35;;;;;;;8.10;1.80;;;13.60;99.90;;;;;;4253320;27;20043;-56
2023/10/24 08:37:37;;;;;;;5.72;1.67;;;13.50;99.90;;;;;;4249007;27;20089;-56
2023/10/24 08:39:40;;;;;;;21.67;2.83;;;13.60;99.90;;;;;;4252640;27;20058;-58
2023/10/24 08:41:48;;;;;;;9.05;2.38;;;13.60;99.90;;;;;;4259696;27;20122;-56
2023/10/24 08:43:52;;;;;;;6.57;1.92;;;13.60;99.90;;;;;;4249958;27;20118;-56
2023/10/24 08:45:55;;;;;;;8.23;2.23;;;13.60;99.90;;;;;;4262000;27;20449;-56
2023/10/24 08:47:59;;;;;;;6.07;1.92;;;13.60;99.90;;;;;;4249553;27;20852;-55
2023/10/24 08:50:02;;;;;;;11.77;1.80;;;13.60;99.90;;;;;;4252964;27;20039;-55
2023/10/24 08:52:04;;;;;;;10.43;1.85;;;13.60;99.90;;;;;;4247955;27;20102;-54
2023/10/24 08:54:27;;;;;;;11.50;1.95;;;13.50;99.90;;;;;;4265348;27;20110;-55
2023/10/24 08:56:29;;;;;;;6.75;1.83;;;13.60;99.90;;;;;;4254515;27;20047;-55
2023/10/24 08:58:36;;;;;;;9.45;1.50;;;13.60;99.90;;;;;;4266156;27;20042;-55
2023/10/24 09:00:40;;;;;;;6.70;1.90;;;13.70;99.90;;;;;;4260118;27;20066;-65
2023/10/24 09:02:43;;;;;;;8.23;2.35;;;13.70;99.90;;;;;;4261972;27;20046;-56
2023/10/24 09:04:46;;;;;;;6.25;1.65;;;13.80;99.90;;;;;;4265641;27;20067;-56
2023/10/24 09:06:48;;;;;;;10.35;2.03;;;13.80;99.90;;;;;;4254070;27;20503;-56
2023/10/24 09:08:50;;;;;;;13.18;2.45;;;13.90;99.90;;;;;;4266372;27;20067;-56
2023/10/24 09:10:52;;;;;;;8.23;1.90;;;13.90;99.90;;;;;;4261139;27;20046;-56
2023/10/24 09:12:54;;;;;;;7.78;1.70;;;13.90;99.90;;;;;;4258283;27;20535;-56
2023/10/24 09:14:58;;;;;;;8.15;1.85;;;13.90;99.90;;;;;;4267790;27;20043;-55
2023/10/24 09:17:05;;;;;;;6.25;1.58;;;13.90;99.90;;;;;;4256365;27;20134;-65
2023/10/24 09:19:12;;;;;;;7.47;1.73;;;14.00;99.90;;;;;;4268616;27;20078;-59
2023/10/24 09:21:17;;;;;;;8.65;2.00;;;14.00;99.90;;;;;;4262210;27;20535;-56
2023/10/24 09:23:20;;;;;;;9.13;2.20;;;14.00;99.90;;;;;;4254104;27;20043;-55
2023/10/24 09:25:22;;;;;;;8.63;1.83;;;14.10;99.90;;;;;;4263319;27;20376;-55
2023/10/24 09:27:27;;;;;;;9.25;2.50;;;14.10;99.90;;;;;;4253822;27;20045;-55
2023/10/24 09:29:32;;;;;;;7.35;1.88;;;14.10;99.90;;;;;;4265975;27;20097;-58
2023/10/24 09:31:34;;;;;;;6.90;1.50;;;14.10;99.90;;;;;;4260957;27;20118;-55
2023/10/24 09:33:39;;;;;;;8.60;2.45;;;14.10;99.90;;;;;;4257987;27;20062;-55
2023/10/24 09:35:42;;;;;;;9.27;1.83;;;14.10;99.90;;;;;;4265414;27;20043;-55
2023/10/24 09:37:53;;;;;;;12.65;1.70;;;14.20;99.90;;;;;;4254085;27;20146;-56
2023/10/24 09:39:57;;;;;;;7.93;2.05;;;14.20;99.90;;;;;;4267428;27;20095;-55
2023/10/24 09:42:00;;;;;;;11.10;2.60;;;14.30;99.90;;;;;;4261788;27;20116;-65
2023/10/24 09:44:02;;;;;;;11.30;1.80;;;14.30;99.90;;;;;;4259776;27;20121;-56
2023/10/24 09:46:07;;;;;;;17.48;2.55;;;14.30;99.90;;;;;;4265625;27;20066;-59
2023/10/24 09:48:11;;;;;;;8.88;1.67;;;14.30;99.90;;;;;;4253790;27;20483;-55
2023/10/24 09:50:15;;;;;;;5.10;1.30;;;14.40;99.90;;;;;;4265175;27;20053;-55
2023/10/24 09:52:18;;;;;;;6.50;1.90;;;14.30;99.90;;;;;;4260125;27;20035;-57
2023/10/24 09:54:21;;;;;;;8.50;1.85;;;14.40;99.90;;;;;;4258102;27;20276;-58
2023/10/24 09:56:25;;;;;;;7.78;1.90;;;14.30;99.90;;;;;;4265341;27;20039;-60
2023/10/24 09:58:29;;;;;;;10.38;1.90;;;14.40;99.90;;;;;;4255754;27;20043;-56
2023/10/24 10:00:32;;;;;;;5.93;1.50;;;14.50;99.90;;;;;;4268296;27;20062;-61
2023/10/24 10:02:41;;;;;;;9.38;1.83;;;14.50;99.90;;;;;;4261618;27;20451;-62
2023/10/24 10:04:44;;;;;;;6.15;1.80;;;14.50;99.90;;;;;;4256254;27;20050;-52
2023/10/24 10:06:48;;;;;;;6.45;1.83;;;14.50;99.90;;;;;;4249225;27;20429;-54
2023/10/24 10:09:03;;;;;;;10.13;2.00;;;14.60;99.90;;;;;;4264381;27;20038;-53
2023/10/24 10:11:08;;;;;;;11.90;1.98;;;14.50;99.90;;;;;;4267618;27;20063;-54
2023/10/24 10:13:14;;;;;;;10.35;1.92;;;14.50;99.90;;;;;;4259821;27;20503;-55
2023/10/24 10:15:39;;;;;;;9.15;2.08;;;14.40;99.90;;;;;;4260987;27;20129;-54
2023/10/24 10:17:52;;;;;;;10.48;2.55;;;14.50;99.90;;;;;;4261401;27;20047;-56
2023/10/24 10:20:24;;;;;;;11.88;2.53;;;14.60;99.90;;;;;;4255100;27;20428;-59
2023/10/24 10:22:44;;;;;;;7.35;1.90;;;14.60;99.90;;;;;;4263277;27;20053;-53
2023/10/24 10:25:02;;;;;;;4.95;1.33;;;14.60;99.90;;;;;;4257841;27;20114;-52
2023/10/24 10:27:17;;;;;;;4.13;1.50;;;14.60;99.90;;;;;;4264927;27;20047;-52
2023/10/24 10:29:24;;;;;;;;;;;14.70;99.90;;;;;;4261976;27;20046;-53
2023/10/24 10:31:59;;;;;;;6.28;1.67;;;14.70;99.90;;;;;;4253900;27;19962;-60
2023/10/24 10:34:32;;;;;;;7.80;1.73;;;14.70;99.90;;;;;;4261303;27;20077;-58
2023/10/24 10:36:52;;;;;;;5.50;1.50;;;14.80;99.90;;;;;;4267841;27;20454;-54
2023/10/24 10:39:00;;;;;;;12.10;3.33;;;14.80;99.90;;;;;;4263084;27;20090;-54
2023/10/24 10:41:38;;;;;;;16.33;4.38;;;14.70;99.90;;;;;;4256121;27;20137;-57